createdAt,value
2014-07-24T19:01:50.290Z,23.4
2014-07-24T19:02:08.493Z,23.4
2014-07-24T19:02:26.699Z,23.4
2014-07-24T19:02:44.902Z,23.4
2014-07-24T19:03:03.089Z,23.4
2014-07-24T19:03:21.293Z,23.4
2014-07-24T19:03:39.481Z,23.4
2014-07-24T19:03:57.684Z,23.4
2014-07-24T19:04:15.871Z,23.7
2014-07-24T19:04:34.077Z,23.8
2014-07-24T19:04:52.264Z,23.8
2014-07-24T19:05:10.467Z,23.9
2014-07-24T19:05:28.657Z,24.1
2014-07-24T19:05:46.860Z,24.1
2014-07-24T19:06:05.047Z,24.1
2014-07-24T19:06:23.252Z,24.1
2014-07-24T19:06:41.440Z,24.1
2014-07-24T19:06:59.643Z,24.1
2014-07-24T19:07:17.831Z,24.1
2014-07-24T19:07:36.036Z,24.1
2014-07-24T19:07:54.223Z,24.2
2014-07-24T19:08:12.426Z,24.2
2014-07-24T19:08:30.616Z,24.2
2014-07-24T19:08:48.819Z,24.2
2014-07-24T19:09:07.006Z,24.2
2014-07-24T19:09:25.212Z,24.2
2014-07-24T19:09:43.415Z,24.2
2014-07-24T19:10:01.602Z,24.2
2014-07-24T19:10:19.805Z,24.3
2014-07-24T19:10:37.995Z,24.3
2014-07-24T19:10:56.198Z,24.3
2014-07-24T19:11:14.385Z,24.3
2014-07-24T19:11:32.591Z,24.3
2014-07-24T19:11:50.778Z,24.3
2014-07-24T19:12:08.966Z,24.3
2014-07-24T19:12:27.169Z,24.4
2014-07-24T19:12:45.359Z,24.4
2014-07-24T19:13:03.562Z,24.4
2014-07-24T19:13:21.765Z,24.4
2014-07-24T19:13:39.954Z,24.5
2014-07-24T19:13:58.157Z,24.5
2014-07-24T19:14:16.891Z,24.5
2014-07-24T19:14:35.097Z,24.5
2014-07-24T19:14:53.284Z,24.5
2014-07-24T19:15:11.487Z,24.5
2014-07-24T19:15:29.675Z,24.5
2014-07-24T19:15:47.880Z,24.5
2014-07-24T19:16:06.067Z,24.5
2014-07-24T19:16:24.286Z,24.5
2014-07-24T19:16:42.491Z,24.5
2014-07-24T19:17:00.679Z,24.6
2014-07-24T19:17:18.882Z,24.6
2014-07-24T19:17:37.071Z,24.6
2014-07-24T19:17:55.274Z,24.7
2014-07-24T19:18:13.462Z,24.7
2014-07-24T19:18:31.649Z,24.7
2014-07-24T19:18:49.855Z,24.7
2014-07-24T19:19:08.058Z,24.7
2014-07-24T19:19:26.245Z,24.7
2014-07-24T19:19:44.435Z,24.6
2014-07-24T19:20:02.638Z,24.6
2014-07-24T19:20:20.825Z,24.6
2014-07-24T19:20:39.030Z,24.6
2014-07-24T19:20:57.234Z,24.6
2014-07-24T19:21:15.421Z,24.6
2014-07-24T19:21:33.624Z,24.6
2014-07-24T19:21:51.814Z,24.5
2014-07-24T19:22:10.017Z,24.5
2014-07-24T19:22:28.204Z,24.5
2014-07-24T19:22:46.409Z,24.5
2014-07-24T19:23:04.597Z,24.5
2014-07-24T19:23:22.800Z,24.5
2014-07-24T19:23:40.990Z,24.5
2014-07-24T19:23:59.193Z,24.4
2014-07-24T19:24:17.380Z,24.5
2014-07-24T19:24:35.583Z,24.5
2014-07-24T19:24:53.772Z,24.5
2014-07-24T19:25:11.975Z,24.5
2014-07-24T19:25:30.178Z,24.5
2014-07-24T19:25:48.383Z,24.5
2014-07-24T19:26:06.586Z,24.4
2014-07-24T19:26:24.774Z,24.4
2014-07-24T19:26:42.980Z,24.4
2014-07-24T19:27:01.167Z,24.4
2014-07-24T19:27:19.371Z,24.4
2014-07-24T19:27:37.558Z,24.4
2014-07-24T19:27:55.762Z,24.4
2014-07-24T19:28:13.950Z,24.5
2014-07-24T19:28:32.153Z,24.5
2014-07-24T19:28:50.343Z,24.5
2014-07-24T19:29:08.546Z,24.5
2014-07-24T19:29:26.750Z,24.5
2014-07-24T19:29:44.938Z,24.5
2014-07-24T19:30:03.141Z,24.5
2014-07-24T19:30:21.329Z,24.5
2014-07-24T19:30:39.547Z,24.5
2014-07-24T19:30:57.721Z,24.4
2014-07-24T19:31:15.924Z,24.4
2014-07-24T19:31:34.159Z,24.4
2014-07-24T19:31:52.348Z,24.4
2014-07-24T19:32:10.567Z,24.4
2014-07-24T19:32:28.755Z,24.4
2014-07-24T19:32:46.944Z,24.4
2014-07-24T19:33:05.147Z,24.4
2014-07-24T19:33:23.444Z,24.4
2014-07-24T19:33:41.632Z,24.4
2014-07-24T19:33:59.837Z,24.4
2014-07-24T19:34:18.024Z,24.4
2014-07-24T19:34:36.227Z,24.4
2014-07-24T19:34:54.417Z,24.4
2014-07-24T19:35:12.620Z,24.4
2014-07-24T19:35:30.807Z,24.4
2014-07-24T19:35:49.013Z,24.4
2014-07-24T19:36:07.200Z,24.4
2014-07-24T19:36:25.403Z,24.4
2014-07-24T19:36:43.591Z,24.4
2014-07-24T19:37:01.795Z,24.4
2014-07-24T19:37:19.982Z,24.4
2014-07-24T19:38:01.063Z,24.4
2014-07-24T19:38:19.251Z,24.4
2014-07-24T19:38:37.454Z,24.4
2014-07-24T19:38:55.658Z,24.4
2014-07-24T19:39:13.846Z,24.4
2014-07-24T19:39:32.049Z,24.4
2014-07-24T19:39:50.236Z,24.4
2014-07-24T19:40:08.441Z,24.4
2014-07-24T19:40:26.629Z,24.4
2014-07-24T19:40:44.832Z,24.4
2014-07-24T19:41:03.037Z,24.4
2014-07-24T19:41:21.240Z,24.4
2014-07-24T19:41:39.428Z,24.4
2014-07-24T19:41:57.634Z,24.4
2014-07-24T19:42:15.821Z,24.4
2014-07-24T19:42:34.025Z,24.4
2014-07-24T19:42:52.228Z,24.4
2014-07-24T19:43:10.417Z,24.4
2014-07-24T19:43:28.620Z,24.4
2014-07-24T19:43:46.808Z,24.4
2014-07-24T19:44:05.013Z,24.5
2014-07-24T19:44:23.200Z,24.5
2014-07-24T19:44:41.404Z,24.5
2014-07-24T19:44:59.593Z,24.5
2014-07-24T19:45:17.796Z,24.5
2014-07-24T19:45:35.999Z,24.5
2014-07-24T19:45:54.202Z,24.5
2014-07-24T19:46:12.392Z,24.5
2014-07-24T19:46:30.595Z,24.5
2014-07-24T19:46:48.798Z,24.5
2014-07-24T19:47:06.987Z,24.5
2014-07-24T19:47:25.190Z,24.5
2014-07-24T19:47:43.377Z,24.5
2014-07-24T19:48:01.582Z,24.5
2014-07-24T19:48:19.770Z,24.5
2014-07-24T19:48:37.973Z,24.5
2014-07-24T19:48:56.161Z,24.5
2014-07-24T19:49:14.366Z,24.5
2014-07-24T19:49:32.569Z,24.5
2014-07-24T19:49:50.756Z,24.5
2014-07-24T19:50:08.961Z,24.5
2014-07-24T19:50:27.165Z,24.5
2014-07-24T19:50:45.352Z,24.5
2014-07-24T19:51:03.557Z,24.5
2014-07-24T19:51:21.745Z,24.5
2014-07-24T19:51:39.948Z,24.5
2014-07-24T19:51:58.135Z,24.5
2014-07-24T19:52:16.340Z,24.5
2014-07-24T19:52:34.528Z,24.5
2014-07-24T19:52:52.747Z,24.5
2014-07-24T19:53:10.936Z,24.5
2014-07-24T19:53:29.139Z,24.5
2014-07-24T19:53:47.327Z,24.5
2014-07-24T19:54:05.516Z,24.5
2014-07-24T19:54:23.766Z,24.5
2014-07-24T19:54:41.923Z,24.5
2014-07-24T19:55:00.126Z,24.5
2014-07-24T19:55:18.331Z,24.5
2014-07-24T19:55:36.518Z,24.5
2014-07-24T19:55:54.753Z,24.5
2014-07-24T19:56:12.927Z,24.5
2014-07-24T19:56:31.114Z,24.5
2014-07-24T19:56:49.317Z,24.5
2014-07-24T19:57:07.505Z,24.5
2014-07-24T19:57:25.694Z,24.4
2014-07-24T19:57:43.897Z,24.5
2014-07-24T19:58:02.100Z,24.4
2014-07-24T21:47:08.950Z,24.4
2014-07-24T21:47:27.140Z,24.4
2014-07-24T21:47:45.343Z,24.4
2014-07-24T21:48:03.530Z,24.3
2014-07-24T21:48:21.720Z,24.3
2014-07-24T21:48:39.907Z,24.2
2014-07-24T21:48:58.095Z,24.2
2014-07-24T21:49:16.298Z,24.2
2014-07-24T21:49:34.487Z,24.2
2014-07-24T21:49:52.675Z,24.1
2014-07-24T21:50:10.862Z,24.1
2014-07-24T21:50:29.052Z,24.1
2014-07-24T21:50:47.255Z,24
2014-07-24T21:51:05.442Z,24
2014-07-24T21:51:23.632Z,24
2014-07-24T21:51:41.819Z,24
2014-07-24T21:52:00.007Z,24
2014-07-24T21:52:18.196Z,23.9
2014-07-24T21:52:36.384Z,23.9
2014-07-24T21:52:54.571Z,23.9
2014-07-24T21:53:12.759Z,23.9
2014-07-24T21:53:30.948Z,23.9
2014-07-24T21:53:49.152Z,23.9
2014-07-24T21:54:07.339Z,23.9
2014-07-24T21:54:25.528Z,23.9
2014-07-24T21:54:43.715Z,23.9
2014-07-24T21:55:01.903Z,23.9
2014-07-24T21:55:20.092Z,23.9
2014-07-24T21:55:38.295Z,23.8
2014-07-24T21:55:56.483Z,23.8
2014-07-24T21:56:14.670Z,23.8
2014-07-24T21:56:32.860Z,23.8
2014-07-24T21:56:51.063Z,23.8
2014-07-24T21:57:09.250Z,23.8
2014-07-24T21:57:27.440Z,23.8
2014-07-24T21:57:45.627Z,23.8
2014-07-24T21:58:03.815Z,23.8
2014-07-24T21:58:22.021Z,23.8
2014-07-24T21:58:40.208Z,23.8
2014-07-24T21:58:58.396Z,23.8
2014-07-24T21:59:16.583Z,23.8
2014-07-24T21:59:34.773Z,23.8
2014-07-24T21:59:52.960Z,23.8
2014-07-24T22:00:11.164Z,23.7
2014-07-24T22:00:29.353Z,23.7
2014-07-24T22:00:47.541Z,23.8
2014-07-24T22:01:05.728Z,23.7
2014-07-24T22:01:23.918Z,23.7
2014-07-24T22:01:42.105Z,23.7
2014-07-24T22:02:00.293Z,23.7
2014-07-24T22:02:18.496Z,23.7
2014-07-24T22:02:36.684Z,23.7
2014-07-24T22:02:54.872Z,23.7
2014-07-24T22:03:13.059Z,23.7
2014-07-24T22:03:31.249Z,23.7
2014-07-24T22:03:49.452Z,23.7
2014-07-24T22:04:07.639Z,23.7
2014-07-24T22:04:25.829Z,23.7
2014-07-24T22:04:44.016Z,23.7
2014-07-24T22:05:02.204Z,23.7
2014-07-24T22:05:20.391Z,23.7
2014-07-24T22:05:38.581Z,23.7
2014-07-24T22:05:56.784Z,23.7
2014-07-24T22:06:14.971Z,23.7
2014-07-24T22:06:33.174Z,23.7
2014-07-24T22:06:51.361Z,23.7
2014-07-24T22:07:09.549Z,23.7
2014-07-24T22:07:27.776Z,23.7
2014-07-24T22:07:45.964Z,23.7
2014-07-24T22:08:04.151Z,23.7
2014-07-24T22:08:22.339Z,23.7
2014-07-24T22:08:40.583Z,23.7
2014-07-24T22:08:58.771Z,23.7
2014-07-24T22:09:16.958Z,23.7
2014-07-24T22:09:35.187Z,23.7
2014-07-24T22:09:53.374Z,23.7
2014-07-24T22:10:11.562Z,23.7
2014-07-24T22:10:29.789Z,23.7
2014-07-24T22:10:47.977Z,23.7
2014-07-24T22:11:06.180Z,23.7
2014-07-24T22:11:24.367Z,23.7
2014-07-24T22:11:42.602Z,23.7
2014-07-24T22:12:00.790Z,23.7
2014-07-24T22:12:18.977Z,23.7
2014-07-24T22:12:37.181Z,23.7
2014-07-24T22:12:55.368Z,23.7
2014-07-24T22:13:13.556Z,23.7
2014-07-24T22:13:31.775Z,23.7
2014-07-24T22:13:49.962Z,23.7
2014-07-24T22:14:08.150Z,23.7
2014-07-24T22:14:26.337Z,23.7
2014-07-24T22:14:44.541Z,23.7
2014-07-24T22:15:02.728Z,23.7
2014-07-24T22:15:20.932Z,23.7
2014-07-24T22:15:39.134Z,23.7
2014-07-24T22:15:57.322Z,23.7
2014-07-24T22:16:15.509Z,23.7
2014-07-24T22:16:33.710Z,23.7
2014-07-24T22:16:51.913Z,23.7
2014-07-24T22:17:10.100Z,23.7
2014-07-24T22:17:28.288Z,23.7
2014-07-24T22:17:46.482Z,23.7
2014-07-24T22:18:04.670Z,23.7
2014-07-24T22:18:22.873Z,23.7
2014-07-24T22:18:41.067Z,23.7
2014-07-24T22:18:59.255Z,23.7
2014-07-24T22:19:17.442Z,23.7
2014-07-24T22:19:35.637Z,23.7
2014-07-24T22:19:53.840Z,23.7
2014-07-24T22:20:12.027Z,23.7
2014-07-24T22:20:30.215Z,23.7
2014-07-24T22:20:48.409Z,23.7
2014-07-24T22:21:06.597Z,23.7
2014-07-24T22:21:24.800Z,23.7
2014-07-24T22:21:42.993Z,23.7
2014-07-24T22:22:01.180Z,23.7
2014-07-24T22:22:19.368Z,23.7
2014-07-24T22:22:37.559Z,23.7
2014-07-24T22:22:55.747Z,23.7
2014-07-24T22:23:13.950Z,23.7
2014-07-24T22:23:32.137Z,23.7
2014-07-24T22:23:50.328Z,23.7
2014-07-24T22:24:08.515Z,23.7
2014-07-24T22:24:26.703Z,23.6
2014-07-24T22:24:44.893Z,23.6
2014-07-24T22:25:03.081Z,23.6
2014-07-24T22:25:21.284Z,23.6
2014-07-24T22:25:39.471Z,23.6
2014-07-24T22:25:57.663Z,23.6
2014-07-24T22:26:15.850Z,23.6
2014-07-24T22:26:34.038Z,23.6
2014-07-24T22:26:52.228Z,23.6
2014-07-24T22:27:10.416Z,23.6
2014-07-24T22:27:28.603Z,23.6
2014-07-24T22:27:46.809Z,23.6
2014-07-24T22:28:04.997Z,23.6
2014-07-24T22:28:23.184Z,23.6
2014-07-24T22:28:41.372Z,23.6
2014-07-24T22:28:59.562Z,23.6
2014-07-24T22:29:17.750Z,23.6
2014-07-24T22:29:35.953Z,23.6
2014-07-24T22:29:54.143Z,23.6
2014-07-24T22:30:12.330Z,23.6
2014-07-24T22:30:30.518Z,23.6
2014-07-24T22:30:48.708Z,23.6
2014-07-24T22:31:06.911Z,23.6
2014-07-24T22:31:25.099Z,23.6
2014-07-24T22:31:43.552Z,23.6
2014-07-24T22:32:01.741Z,23.6
2014-07-24T22:32:19.929Z,23.6
2014-07-24T22:32:38.116Z,23.6
2014-07-24T22:32:56.306Z,23.6
2014-07-24T22:33:14.493Z,23.6
2014-07-24T22:33:32.681Z,23.6
2014-07-24T22:33:50.868Z,23.6
2014-07-24T22:34:09.073Z,23.6
2014-07-24T22:34:27.261Z,23.6
2014-07-24T22:34:45.448Z,23.6
2014-07-24T22:35:03.639Z,23.6
2014-07-24T22:35:21.826Z,23.6
2014-07-24T22:35:40.014Z,23.6
2014-07-24T22:35:58.201Z,23.6
2014-07-24T22:36:16.391Z,23.6
2014-07-24T22:36:34.578Z,23.6
2014-07-24T22:36:52.766Z,23.6
2014-07-24T22:37:10.970Z,23.6
2014-07-24T22:37:29.158Z,23.6
2014-07-24T22:37:47.345Z,23.6
2014-07-24T22:38:05.533Z,23.6
2014-07-24T22:38:23.723Z,23.5
2014-07-24T22:38:41.911Z,23.5
2014-07-24T22:39:00.098Z,23.5
2014-07-24T22:39:18.288Z,23.5
2014-07-24T22:39:36.491Z,23.5
2014-07-24T22:39:54.678Z,23.5
2014-07-24T22:40:12.867Z,23.5
2014-07-24T22:40:31.054Z,23.5
2014-07-24T22:40:49.242Z,23.5
2014-07-24T22:41:07.447Z,23.5
2014-07-24T22:41:25.634Z,23.5
2014-07-24T22:41:43.822Z,23.5
2014-07-24T22:42:02.009Z,23.5
2014-07-24T22:42:20.199Z,23.5
2014-07-24T22:42:38.402Z,23.5
2014-07-24T22:42:56.589Z,23.5
2014-07-24T22:43:14.779Z,23.5
2014-07-24T22:43:32.966Z,23.5
2014-07-24T22:43:51.154Z,23.5
2014-07-24T22:44:09.343Z,23.5
2014-07-24T22:44:27.547Z,23.5
2014-07-24T22:44:45.734Z,23.5
2014-07-24T22:45:03.922Z,23.5
2014-07-24T22:45:22.111Z,23.5
2014-07-24T22:45:40.299Z,23.5
2014-07-24T22:45:58.486Z,23.5
2014-07-24T22:46:16.691Z,23.5
2014-07-24T22:46:34.879Z,23.5
2014-07-24T22:46:53.066Z,23.5
2014-07-24T22:47:11.255Z,23.5
2014-07-24T22:47:29.442Z,23.5
2014-07-24T22:47:47.630Z,23.5
2014-07-24T22:48:05.817Z,23.5
2014-07-24T22:48:24.023Z,23.5
2014-07-24T22:48:42.211Z,23.5
2014-07-24T22:49:00.398Z,23.5
2014-07-24T22:49:18.588Z,23.5
2014-07-24T22:49:36.775Z,23.4
2014-07-24T22:49:54.963Z,23.4
2014-07-24T22:50:13.152Z,23.4
2014-07-24T22:50:31.355Z,23.4
2014-07-24T22:50:49.543Z,23.4
2014-07-24T22:51:07.730Z,23.4
2014-07-24T22:51:25.920Z,23.4
2014-07-24T22:51:44.107Z,23.4
2014-07-24T22:52:02.311Z,23.4
2014-07-24T22:52:20.500Z,23.4
2014-07-24T22:52:38.688Z,23.4
2014-07-24T22:52:56.875Z,23.4
2014-07-24T22:53:15.063Z,23.4
2014-07-24T22:53:33.252Z,23.4
2014-07-24T22:53:51.455Z,23.4
2014-07-24T22:54:09.643Z,23.4
2014-07-24T22:54:27.831Z,23.4
2014-07-24T22:54:46.019Z,23.4
2014-07-24T22:55:04.206Z,23.4
2014-07-24T22:55:22.397Z,23.4
2014-07-24T22:55:40.584Z,23.4
2014-07-24T22:55:58.772Z,23.4
2014-07-24T22:56:16.959Z,23.4
2014-07-24T22:56:35.163Z,23.4
2014-07-24T22:56:53.351Z,23.4
2014-07-24T22:57:11.538Z,23.4
2014-07-24T22:57:29.728Z,23.4
2014-07-24T22:57:47.915Z,23.4
2014-07-24T22:58:06.103Z,23.4
2014-07-24T22:58:24.292Z,23.4
2014-07-24T22:58:42.480Z,23.4
2014-07-24T22:59:00.667Z,23.4
2014-07-24T22:59:18.872Z,23.4
2014-07-24T22:59:37.060Z,23.4
2014-07-24T22:59:55.247Z,23.4
2014-07-24T23:00:13.435Z,23.4
2014-07-24T23:00:31.640Z,23.4
2014-07-24T23:00:49.828Z,23.4
2014-07-24T23:01:08.015Z,23.4
2014-07-24T23:01:26.205Z,23.4
2014-07-24T23:01:44.392Z,23.4
2014-07-24T23:02:02.580Z,23.4
2014-07-24T23:02:20.769Z,23.3
2014-07-24T23:02:38.972Z,23.4
2014-07-24T23:02:57.160Z,23.4
2014-07-24T23:03:15.347Z,23.4
2014-07-24T23:03:33.537Z,23.4
2014-07-24T23:03:51.724Z,23.3
2014-07-24T23:04:09.912Z,23.4
2014-07-24T23:04:28.101Z,23.4
2014-07-24T23:04:46.289Z,23.3
2014-07-24T23:05:04.492Z,23.3
2014-07-24T23:05:22.681Z,23.4
2014-07-24T23:05:40.869Z,23.4
2014-07-24T23:05:59.056Z,23.4
2014-07-24T23:06:17.244Z,23.3
2014-07-24T23:06:35.448Z,23.4
2014-07-24T23:06:53.635Z,23.3
2014-07-24T23:07:11.823Z,23.3
2014-07-24T23:07:30.013Z,23.3
2014-07-24T23:07:48.201Z,23.3
2014-07-24T23:08:06.388Z,23.4
2014-07-24T23:08:24.576Z,23.3
2014-07-24T23:08:42.781Z,23.3
2014-07-24T23:09:00.969Z,23.3
2014-07-24T23:09:19.156Z,23.3
2014-07-24T23:09:37.346Z,23.3
2014-07-24T23:09:55.533Z,23.3
2014-07-24T23:10:13.736Z,23.3
2014-07-24T23:10:31.910Z,23.3
2014-07-24T23:10:50.113Z,23.3
2014-07-24T23:11:08.301Z,23.3
2014-07-24T23:11:26.488Z,23.3
2014-07-24T23:11:44.678Z,23.3
2014-07-24T23:12:02.865Z,23.3
2014-07-24T23:12:21.053Z,23.3
2014-07-24T23:12:39.258Z,23.3
2014-07-24T23:12:57.445Z,23.3
2014-07-24T23:13:15.633Z,23.3
2014-07-24T23:13:33.821Z,23.3
2014-07-24T23:13:52.009Z,23.3
2014-07-24T23:14:10.196Z,23.3
2014-07-24T23:14:28.399Z,23.3
2014-07-24T23:14:46.589Z,23.3
2014-07-24T23:15:04.776Z,23.3
2014-07-24T23:15:22.964Z,23.3
2014-07-24T23:15:41.154Z,23.3
2014-07-24T23:15:59.358Z,23.3
2014-07-24T23:16:17.545Z,23.3
2014-07-24T23:16:35.735Z,23.3
2014-07-24T23:16:53.922Z,23.3
2014-07-24T23:17:12.125Z,23.3
2014-07-24T23:17:30.313Z,23.3
2014-07-24T23:17:48.502Z,23.3
2014-07-24T23:18:06.690Z,23.3
2014-07-24T23:18:24.877Z,23.3
2014-07-24T23:18:43.066Z,23.3
2014-07-24T23:19:01.253Z,23.3
2014-07-24T23:19:19.456Z,23.3
2014-07-24T23:19:37.646Z,23.3
2014-07-24T23:19:55.833Z,23.3
2014-07-24T23:20:14.021Z,23.3
2014-07-24T23:20:32.208Z,23.3
2014-07-24T23:20:50.398Z,23.3
2014-07-24T23:21:08.585Z,23.3
2014-07-24T23:21:26.773Z,23.3
2014-07-24T23:21:44.962Z,23.3
2014-07-24T23:22:03.165Z,23.3
2014-07-24T23:22:21.353Z,23.3
2014-07-24T23:22:39.542Z,23.3
2014-07-24T23:22:57.730Z,23.2
2014-07-24T23:23:15.933Z,23.3
2014-07-24T23:23:34.105Z,23.3
2014-07-24T23:23:52.310Z,23.3
2014-07-24T23:24:10.498Z,23.3
2014-07-24T23:24:28.685Z,23.3
2014-07-24T23:24:46.875Z,23.3
2014-07-24T23:25:05.062Z,23.3
2014-07-24T23:25:23.265Z,23.3
2014-07-24T23:25:41.454Z,23.3
2014-07-24T23:25:59.641Z,23.3
2014-07-24T23:26:17.829Z,23.3
2014-07-24T23:26:36.016Z,23.3
2014-07-24T23:26:54.207Z,23.3
2014-07-24T23:27:12.394Z,23.3
2014-07-24T23:27:30.582Z,23.2
2014-07-24T23:27:48.771Z,23.3
2014-07-24T23:28:06.974Z,23.3
2014-07-24T23:28:25.162Z,23.3
2014-07-24T23:28:43.351Z,23.2
2014-07-24T23:29:01.539Z,23.2
2014-07-24T23:29:19.726Z,23.2
2014-07-24T23:29:37.914Z,23.3
2014-07-24T23:29:56.119Z,23.3
2014-07-24T23:30:14.306Z,23.3
2014-07-24T23:30:32.494Z,23.3
2014-07-24T23:30:50.699Z,23.2
2014-07-24T23:31:08.871Z,23.2
2014-07-24T23:31:27.058Z,23.3
2014-07-24T23:31:45.263Z,23.3
2014-07-24T23:32:03.450Z,23.2
2014-07-24T23:32:21.638Z,23.3
2014-07-24T23:32:39.825Z,23.2
2014-07-24T23:32:58.016Z,23.2
2014-07-24T23:33:16.203Z,23.2
2014-07-24T23:33:34.391Z,23.2
2014-07-24T23:33:52.595Z,23.2
2014-07-24T23:34:10.782Z,23.2
2014-07-24T23:34:28.970Z,23.2
2014-07-24T23:34:47.159Z,23.2
2014-07-24T23:35:05.347Z,23.2
2014-07-24T23:35:23.534Z,23.2
2014-07-24T23:35:41.722Z,23.2
2014-07-24T23:35:59.911Z,23.2
2014-07-24T23:36:18.099Z,23.2
2014-07-24T23:36:36.286Z,23.2
2014-07-24T23:36:54.491Z,23.2
2014-07-24T23:37:12.679Z,23.2
2014-07-24T23:37:30.866Z,23.2
2014-07-24T23:37:49.056Z,23.2
2014-07-24T23:38:07.243Z,23.2
2014-07-24T23:38:25.446Z,23.2
2014-07-24T23:38:43.634Z,23.2
2014-07-24T23:39:01.823Z,23.2
2014-07-24T23:39:20.011Z,23.2
2014-07-24T23:39:38.198Z,23.2
2014-07-24T23:39:56.388Z,23.2
2014-07-24T23:40:14.575Z,23.2
2014-07-24T23:40:32.763Z,23.2
2014-07-24T23:40:50.968Z,23.2
2014-07-24T23:41:09.156Z,23.2
2014-07-24T23:41:27.343Z,23.2
2014-07-24T23:41:45.531Z,23.2
2014-07-24T23:42:03.720Z,23.2
2014-07-24T23:42:21.908Z,23.2
2014-07-24T23:42:40.111Z,23.2
2014-07-24T23:42:58.300Z,23.2
2014-07-24T23:43:16.488Z,23.2
2014-07-24T23:43:34.675Z,23.2
2014-07-24T23:43:52.863Z,23.2
2014-07-24T23:44:11.068Z,23.2
2014-07-24T23:44:29.255Z,23.2
2014-07-24T23:44:47.443Z,23.2
2014-07-24T23:45:05.632Z,23.2
2014-07-24T23:45:23.820Z,23.2
2014-07-24T23:45:42.023Z,23.2
2014-07-24T23:46:00.212Z,23.2
2014-07-24T23:46:18.400Z,23.2
2014-07-24T23:46:36.587Z,23.2
2014-07-24T23:46:54.775Z,23.2
2014-07-24T23:47:12.964Z,23.2
2014-07-24T23:47:31.152Z,23.2
2014-07-24T23:47:49.339Z,23.2
2014-07-24T23:48:07.544Z,23.2
2014-07-24T23:48:25.731Z,23.2
2014-07-24T23:48:43.919Z,23.2
2014-07-24T23:49:02.108Z,23.2
2014-07-24T23:49:20.296Z,23.2
2014-07-24T23:49:38.499Z,23.2
2014-07-24T23:49:56.686Z,23.2
2014-07-24T23:50:14.876Z,23.2
2014-07-24T23:50:33.063Z,23.2
2014-07-24T23:50:51.251Z,23.2
2014-07-24T23:51:09.441Z,23.2
2014-07-24T23:51:27.629Z,23.2
2014-07-24T23:51:45.816Z,23.2
2014-07-24T23:52:04.020Z,23.2
2014-07-24T23:52:22.208Z,23.2
2014-07-24T23:52:40.395Z,23.2
2014-07-24T23:52:58.583Z,23.2
2014-07-24T23:53:16.772Z,23.2
2014-07-24T23:53:34.960Z,23.2
2014-07-24T23:53:53.163Z,23.2
2014-07-24T23:54:11.352Z,23.2
2014-07-24T23:54:29.540Z,23.2
2014-07-24T23:54:47.727Z,23.2
2014-07-24T23:55:05.917Z,23.2
2014-07-24T23:55:24.104Z,23.2
2014-07-24T23:55:42.308Z,23.2
2014-07-24T23:56:00.495Z,23.2
2014-07-24T23:56:18.685Z,23.2
2014-07-24T23:56:36.872Z,23.2
2014-07-24T23:56:55.060Z,23.2
2014-07-24T23:57:13.249Z,23.2
2014-07-24T23:57:31.437Z,23.2
2014-07-24T23:57:49.624Z,23.2
2014-07-24T23:58:07.827Z,23.2
2014-07-24T23:58:26.018Z,23.2
2014-07-24T23:58:44.205Z,23.2
2014-07-24T23:59:02.393Z,23.2
2014-07-24T23:59:20.581Z,23.2
2014-07-24T23:59:38.769Z,23.2
2014-07-24T23:59:56.956Z,23.2
